sensor_id;sensor_type;location;lat;lon;timestamp;P1;durP1;ratioP1;P2;durP2;ratioP2
61907;SDS011;47864;52.526;19.672;2023-08-17T00:00:42;11.55;;;6.88;;
61907;SDS011;47864;52.526;19.672;2023-08-17T00:02:43;18.20;;;5.63;;
61907;SDS011;47864;52.526;19.672;2023-08-17T00:04:45;11.15;;;6.47;;
61907;SDS011;47864;52.526;19.672;2023-08-17T00:06:46;13.23;;;5.88;;
61907;SDS011;47864;52.526;19.672;2023-08-17T00:08:48;9.43;;;5.93;;
61907;SDS011;47864;52.526;19.672;2023-08-17T00:10:49;10.68;;;5.63;;
61907;SDS011;47864;52.526;19.672;2023-08-17T00:12:51;14.00;;;5.28;;
61907;SDS011;47864;52.526;19.672;2023-08-17T00:14:52;11.13;;;5.53;;
61907;SDS011;47864;52.526;19.672;2023-08-17T00:16:54;12.38;;;5.97;;
61907;SDS011;47864;52.526;19.672;2023-08-17T00:18:55;9.65;;;5.40;;
61907;SDS011;47864;52.526;19.672;2023-08-17T00:20:57;9.07;;;5.40;;
61907;SDS011;47864;52.526;19.672;2023-08-17T00:22:59;10.60;;;5.85;;
61907;SDS011;47864;52.526;19.672;2023-08-17T00:25:00;9.77;;;5.65;;
61907;SDS011;47864;52.526;19.672;2023-08-17T00:27:02;9.52;;;6.10;;
61907;SDS011;47864;52.526;19.672;2023-08-17T00:29:04;11.02;;;5.93;;
61907;SDS011;47864;52.526;19.672;2023-08-17T00:31:05;9.77;;;5.97;;
61907;SDS011;47864;52.526;19.672;2023-08-17T00:33:07;14.68;;;6.32;;
61907;SDS011;47864;52.526;19.672;2023-08-17T00:35:08;10.65;;;6.10;;
61907;SDS011;47864;52.526;19.672;2023-08-17T00:37:10;11.80;;;6.03;;
61907;SDS011;47864;52.526;19.672;2023-08-17T00:39:11;12.02;;;6.50;;
61907;SDS011;47864;52.526;19.672;2023-08-17T00:41:13;11.18;;;6.82;;
61907;SDS011;47864;52.526;19.672;2023-08-17T00:43:14;10.90;;;6.15;;
61907;SDS011;47864;52.526;19.672;2023-08-17T00:45:17;12.73;;;7.10;;
61907;SDS011;47864;52.526;19.672;2023-08-17T00:47:19;11.82;;;7.65;;
61907;SDS011;47864;52.526;19.672;2023-08-17T00:49:20;15.95;;;8.70;;
61907;SDS011;47864;52.526;19.672;2023-08-17T00:51:22;16.48;;;8.48;;
61907;SDS011;47864;52.526;19.672;2023-08-17T00:53:26;11.70;;;8.10;;
61907;SDS011;47864;52.526;19.672;2023-08-17T00:55:30;10.98;;;7.88;;
61907;SDS011;47864;52.526;19.672;2023-08-17T00:57:32;11.25;;;8.15;;
61907;SDS011;47864;52.526;19.672;2023-08-17T00:59:34;10.20;;;7.97;;
61907;SDS011;47864;52.526;19.672;2023-08-17T01:01:37;10.98;;;6.95;;
61907;SDS011;47864;52.526;19.672;2023-08-17T01:03:39;36.90;;;7.13;;
61907;SDS011;47864;52.526;19.672;2023-08-17T01:05:41;11.45;;;6.85;;
61907;SDS011;47864;52.526;19.672;2023-08-17T01:07:43;14.50;;;8.27;;
61907;SDS011;47864;52.526;19.672;2023-08-17T01:09:44;27.00;;;12.20;;
61907;SDS011;47864;52.526;19.672;2023-08-17T01:11:49;17.52;;;8.93;;
61907;SDS011;47864;52.526;19.672;2023-08-17T01:14:10;10.63;;;7.10;;
61907;SDS011;47864;52.526;19.672;2023-08-17T01:16:24;13.77;;;6.63;;
61907;SDS011;47864;52.526;19.672;2023-08-17T01:18:33;15.38;;;6.15;;
61907;SDS011;47864;52.526;19.672;2023-08-17T01:20:36;10.93;;;6.90;;
61907;SDS011;47864;52.526;19.672;2023-08-17T01:22:40;10.80;;;7.28;;
61907;SDS011;47864;52.526;19.672;2023-08-17T01:24:42;11.27;;;7.22;;
61907;SDS011;47864;52.526;19.672;2023-08-17T01:26:44;10.52;;;6.32;;
61907;SDS011;47864;52.526;19.672;2023-08-17T01:28:45;10.73;;;6.32;;
61907;SDS011;47864;52.526;19.672;2023-08-17T01:31:02;10.55;;;6.70;;
61907;SDS011;47864;52.526;19.672;2023-08-17T01:33:09;9.60;;;5.75;;
61907;SDS011;47864;52.526;19.672;2023-08-17T01:36:01;10.18;;;6.90;;
61907;SDS011;47864;52.526;19.672;2023-08-17T01:37:56;13.55;;;7.88;;
61907;SDS011;47864;52.526;19.672;2023-08-17T01:40:00;11.13;;;6.72;;
61907;SDS011;47864;52.526;19.672;2023-08-17T01:42:02;12.32;;;7.32;;
61907;SDS011;47864;52.526;19.672;2023-08-17T01:44:04;9.90;;;6.50;;
61907;SDS011;47864;52.526;19.672;2023-08-17T01:46:07;17.63;;;9.48;;
61907;SDS011;47864;52.526;19.672;2023-08-17T01:48:09;12.98;;;7.45;;
61907;SDS011;47864;52.526;19.672;2023-08-17T01:50:10;9.95;;;6.50;;
61907;SDS011;47864;52.526;19.672;2023-08-17T01:52:12;9.80;;;6.25;;
61907;SDS011;47864;52.526;19.672;2023-08-17T01:54:13;15.75;;;7.05;;
61907;SDS011;47864;52.526;19.672;2023-08-17T01:56:15;11.27;;;6.88;;
61907;SDS011;47864;52.526;19.672;2023-08-17T01:58:16;14.27;;;9.07;;
61907;SDS011;47864;52.526;19.672;2023-08-17T02:00:18;17.10;;;10.13;;
61907;SDS011;47864;52.526;19.672;2023-08-17T02:02:20;13.77;;;8.23;;
61907;SDS011;47864;52.526;19.672;2023-08-17T02:04:21;14.23;;;7.70;;
61907;SDS011;47864;52.526;19.672;2023-08-17T02:06:23;12.40;;;7.40;;
61907;SDS011;47864;52.526;19.672;2023-08-17T02:08:25;12.70;;;7.65;;
61907;SDS011;47864;52.526;19.672;2023-08-17T02:10:26;9.80;;;7.38;;
61907;SDS011;47864;52.526;19.672;2023-08-17T02:12:28;14.13;;;7.65;;
61907;SDS011;47864;52.526;19.672;2023-08-17T02:14:30;13.55;;;9.90;;
61907;SDS011;47864;52.526;19.672;2023-08-17T02:16:31;15.60;;;8.20;;
61907;SDS011;47864;52.526;19.672;2023-08-17T02:18:33;10.30;;;6.78;;
61907;SDS011;47864;52.526;19.672;2023-08-17T02:20:34;12.60;;;7.75;;
61907;SDS011;47864;52.526;19.672;2023-08-17T02:22:35;13.32;;;7.47;;
61907;SDS011;47864;52.526;19.672;2023-08-17T02:24:37;9.77;;;7.32;;
61907;SDS011;47864;52.526;19.672;2023-08-17T02:26:39;12.98;;;7.15;;
61907;SDS011;47864;52.526;19.672;2023-08-17T02:28:40;9.93;;;6.82;;
61907;SDS011;47864;52.526;19.672;2023-08-17T02:30:42;12.57;;;7.38;;
61907;SDS011;47864;52.526;19.672;2023-08-17T02:32:44;14.05;;;7.55;;
61907;SDS011;47864;52.526;19.672;2023-08-17T02:34:46;9.77;;;6.70;;
61907;SDS011;47864;52.526;19.672;2023-08-17T02:36:47;13.13;;;7.72;;
61907;SDS011;47864;52.526;19.672;2023-08-17T02:38:49;10.82;;;6.43;;
61907;SDS011;47864;52.526;19.672;2023-08-17T02:40:50;11.15;;;7.07;;
61907;SDS011;47864;52.526;19.672;2023-08-17T02:42:52;11.77;;;7.93;;
61907;SDS011;47864;52.526;19.672;2023-08-17T02:44:53;11.77;;;7.82;;
61907;SDS011;47864;52.526;19.672;2023-08-17T02:46:55;8.38;;;6.35;;
61907;SDS011;47864;52.526;19.672;2023-08-17T02:48:57;13.75;;;7.95;;
61907;SDS011;47864;52.526;19.672;2023-08-17T02:50:58;13.52;;;7.82;;
61907;SDS011;47864;52.526;19.672;2023-08-17T02:52:59;16.75;;;7.43;;
61907;SDS011;47864;52.526;19.672;2023-08-17T02:55:01;10.00;;;6.78;;
61907;SDS011;47864;52.526;19.672;2023-08-17T02:57:02;12.65;;;7.13;;
61907;SDS011;47864;52.526;19.672;2023-08-17T02:59:04;10.50;;;6.88;;
61907;SDS011;47864;52.526;19.672;2023-08-17T03:01:06;9.68;;;6.72;;
61907;SDS011;47864;52.526;19.672;2023-08-17T03:03:08;10.50;;;6.65;;
61907;SDS011;47864;52.526;19.672;2023-08-17T03:05:09;11.35;;;6.35;;
61907;SDS011;47864;52.526;19.672;2023-08-17T03:07:11;9.27;;;6.03;;
61907;SDS011;47864;52.526;19.672;2023-08-17T03:09:12;14.75;;;6.00;;
61907;SDS011;47864;52.526;19.672;2023-08-17T03:11:14;8.57;;;6.28;;
61907;SDS011;47864;52.526;19.672;2023-08-17T03:13:15;10.38;;;6.50;;
61907;SDS011;47864;52.526;19.672;2023-08-17T03:15:17;9.73;;;6.65;;
61907;SDS011;47864;52.526;19.672;2023-08-17T03:17:19;9.77;;;6.28;;
61907;SDS011;47864;52.526;19.672;2023-08-17T03:19:20;9.80;;;6.68;;
61907;SDS011;47864;52.526;19.672;2023-08-17T03:21:22;8.77;;;5.75;;
61907;SDS011;47864;52.526;19.672;2023-08-17T03:23:23;10.43;;;6.82;;
61907;SDS011;47864;52.526;19.672;2023-08-17T03:25:25;12.43;;;7.18;;
61907;SDS011;47864;52.526;19.672;2023-08-17T03:27:27;9.25;;;6.43;;
61907;SDS011;47864;52.526;19.672;2023-08-17T03:29:29;8.32;;;6.43;;
61907;SDS011;47864;52.526;19.672;2023-08-17T03:31:30;12.05;;;5.85;;
61907;SDS011;47864;52.526;19.672;2023-08-17T03:33:32;8.60;;;6.57;;
61907;SDS011;47864;52.526;19.672;2023-08-17T03:35:33;11.50;;;6.95;;
61907;SDS011;47864;52.526;19.672;2023-08-17T03:37:35;11.93;;;7.15;;
61907;SDS011;47864;52.526;19.672;2023-08-17T03:39:36;10.20;;;5.82;;
61907;SDS011;47864;52.526;19.672;2023-08-17T03:41:38;10.52;;;6.28;;
61907;SDS011;47864;52.526;19.672;2023-08-17T03:43:40;10.35;;;6.85;;
61907;SDS011;47864;52.526;19.672;2023-08-17T03:45:41;12.40;;;6.60;;
61907;SDS011;47864;52.526;19.672;2023-08-17T03:47:43;8.73;;;6.22;;
61907;SDS011;47864;52.526;19.672;2023-08-17T03:49:45;8.90;;;6.85;;
61907;SDS011;47864;52.526;19.672;2023-08-17T03:51:46;15.50;;;6.85;;
61907;SDS011;47864;52.526;19.672;2023-08-17T03:53:48;9.25;;;6.82;;
61907;SDS011;47864;52.526;19.672;2023-08-17T03:55:50;12.82;;;7.07;;
61907;SDS011;47864;52.526;19.672;2023-08-17T03:57:51;10.15;;;7.22;;
61907;SDS011;47864;52.526;19.672;2023-08-17T03:59:53;10.20;;;7.32;;
61907;SDS011;47864;52.526;19.672;2023-08-17T04:01:55;13.48;;;8.02;;
61907;SDS011;47864;52.526;19.672;2023-08-17T04:03:56;13.32;;;8.52;;
61907;SDS011;47864;52.526;19.672;2023-08-17T04:05:57;11.23;;;7.75;;
61907;SDS011;47864;52.526;19.672;2023-08-17T04:08:05;12.80;;;7.50;;
61907;SDS011;47864;52.526;19.672;2023-08-17T04:10:06;9.75;;;7.10;;
61907;SDS011;47864;52.526;19.672;2023-08-17T04:12:08;15.48;;;8.07;;
61907;SDS011;47864;52.526;19.672;2023-08-17T04:14:10;11.13;;;6.93;;
61907;SDS011;47864;52.526;19.672;2023-08-17T04:16:11;9.57;;;6.53;;
61907;SDS011;47864;52.526;19.672;2023-08-17T04:18:13;11.85;;;7.05;;
61907;SDS011;47864;52.526;19.672;2023-08-17T04:20:14;10.13;;;6.82;;
61907;SDS011;47864;52.526;19.672;2023-08-17T04:22:16;11.23;;;7.25;;
61907;SDS011;47864;52.526;19.672;2023-08-17T04:24:18;13.88;;;7.63;;
61907;SDS011;47864;52.526;19.672;2023-08-17T04:26:19;12.38;;;7.45;;
61907;SDS011;47864;52.526;19.672;2023-08-17T04:28:21;12.02;;;8.20;;
61907;SDS011;47864;52.526;19.672;2023-08-17T04:30:22;15.00;;;8.73;;
61907;SDS011;47864;52.526;19.672;2023-08-17T04:32:24;12.10;;;7.72;;
61907;SDS011;47864;52.526;19.672;2023-08-17T04:34:26;12.05;;;8.18;;
61907;SDS011;47864;52.526;19.672;2023-08-17T04:36:27;12.20;;;8.07;;
61907;SDS011;47864;52.526;19.672;2023-08-17T04:38:29;10.65;;;8.25;;
61907;SDS011;47864;52.526;19.672;2023-08-17T04:40:30;9.68;;;6.88;;
61907;SDS011;47864;52.526;19.672;2023-08-17T04:42:32;15.75;;;6.90;;
61907;SDS011;47864;52.526;19.672;2023-08-17T04:44:34;14.25;;;6.90;;
61907;SDS011;47864;52.526;19.672;2023-08-17T04:46:35;12.10;;;6.57;;
61907;SDS011;47864;52.526;19.672;2023-08-17T04:48:37;10.88;;;7.32;;
61907;SDS011;47864;52.526;19.672;2023-08-17T04:50:39;16.30;;;7.63;;
61907;SDS011;47864;52.526;19.672;2023-08-17T04:52:40;10.88;;;7.80;;
61907;SDS011;47864;52.526;19.672;2023-08-17T04:54:42;9.82;;;7.00;;
61907;SDS011;47864;52.526;19.672;2023-08-17T04:56:43;11.38;;;7.30;;
61907;SDS011;47864;52.526;19.672;2023-08-17T04:58:45;13.05;;;7.82;;
61907;SDS011;47864;52.526;19.672;2023-08-17T05:00:46;15.13;;;8.18;;
61907;SDS011;47864;52.526;19.672;2023-08-17T05:02:48;14.05;;;9.23;;
61907;SDS011;47864;52.526;19.672;2023-08-17T05:04:49;10.05;;;7.63;;
61907;SDS011;47864;52.526;19.672;2023-08-17T05:06:51;11.02;;;7.53;;
61907;SDS011;47864;52.526;19.672;2023-08-17T05:08:52;14.10;;;7.93;;
61907;SDS011;47864;52.526;19.672;2023-08-17T05:10:54;13.20;;;7.57;;
61907;SDS011;47864;52.526;19.672;2023-08-17T05:12:55;10.40;;;7.93;;
61907;SDS011;47864;52.526;19.672;2023-08-17T05:14:57;13.05;;;7.95;;
61907;SDS011;47864;52.526;19.672;2023-08-17T05:16:58;14.48;;;8.95;;
61907;SDS011;47864;52.526;19.672;2023-08-17T05:19:00;10.20;;;7.38;;
61907;SDS011;47864;52.526;19.672;2023-08-17T05:21:01;10.23;;;7.40;;
61907;SDS011;47864;52.526;19.672;2023-08-17T05:23:03;12.30;;;7.68;;
61907;SDS011;47864;52.526;19.672;2023-08-17T05:25:05;10.32;;;7.47;;
61907;SDS011;47864;52.526;19.672;2023-08-17T05:27:07;12.25;;;7.90;;
61907;SDS011;47864;52.526;19.672;2023-08-17T05:29:08;10.10;;;7.93;;
61907;SDS011;47864;52.526;19.672;2023-08-17T05:31:10;13.77;;;8.15;;
61907;SDS011;47864;52.526;19.672;2023-08-17T05:33:12;12.05;;;7.72;;
61907;SDS011;47864;52.526;19.672;2023-08-17T05:35:13;13.82;;;7.72;;
61907;SDS011;47864;52.526;19.672;2023-08-17T05:37:15;15.93;;;9.48;;
61907;SDS011;47864;52.526;19.672;2023-08-17T05:39:16;13.73;;;9.57;;
61907;SDS011;47864;52.526;19.672;2023-08-17T05:41:18;14.13;;;7.65;;
61907;SDS011;47864;52.526;19.672;2023-08-17T05:43:19;12.30;;;8.05;;
61907;SDS011;47864;52.526;19.672;2023-08-17T05:45:21;14.57;;;7.28;;
61907;SDS011;47864;52.526;19.672;2023-08-17T05:47:22;8.40;;;6.88;;
61907;SDS011;47864;52.526;19.672;2023-08-17T05:49:24;10.05;;;6.53;;
61907;SDS011;47864;52.526;19.672;2023-08-17T05:51:26;14.57;;;7.38;;
61907;SDS011;47864;52.526;19.672;2023-08-17T05:53:28;25.98;;;7.68;;
61907;SDS011;47864;52.526;19.672;2023-08-17T05:55:29;10.63;;;6.40;;
61907;SDS011;47864;52.526;19.672;2023-08-17T05:57:31;125.88;;;10.68;;
61907;SDS011;47864;52.526;19.672;2023-08-17T05:59:32;11.18;;;7.43;;
61907;SDS011;47864;52.526;19.672;2023-08-17T06:01:34;11.18;;;7.18;;
61907;SDS011;47864;52.526;19.672;2023-08-17T06:03:36;17.10;;;7.55;;
61907;SDS011;47864;52.526;19.672;2023-08-17T06:05:39;11.23;;;7.85;;
61907;SDS011;47864;52.526;19.672;2023-08-17T06:07:40;10.90;;;6.93;;
61907;SDS011;47864;52.526;19.672;2023-08-17T06:09:42;8.88;;;7.07;;
61907;SDS011;47864;52.526;19.672;2023-08-17T06:11:43;10.60;;;7.60;;
61907;SDS011;47864;52.526;19.672;2023-08-17T06:13:45;10.63;;;8.18;;
61907;SDS011;47864;52.526;19.672;2023-08-17T06:15:47;13.23;;;7.15;;
61907;SDS011;47864;52.526;19.672;2023-08-17T06:17:49;11.73;;;9.05;;
61907;SDS011;47864;52.526;19.672;2023-08-17T06:19:50;11.82;;;8.63;;
61907;SDS011;47864;52.526;19.672;2023-08-17T06:21:52;11.45;;;7.68;;
61907;SDS011;47864;52.526;19.672;2023-08-17T06:23:53;13.10;;;8.35;;
61907;SDS011;47864;52.526;19.672;2023-08-17T06:25:58;13.43;;;8.77;;
61907;SDS011;47864;52.526;19.672;2023-08-17T06:28:01;13.88;;;7.78;;
61907;SDS011;47864;52.526;19.672;2023-08-17T06:30:03;13.20;;;9.02;;
61907;SDS011;47864;52.526;19.672;2023-08-17T06:32:05;11.05;;;8.25;;
61907;SDS011;47864;52.526;19.672;2023-08-17T06:34:06;9.88;;;7.82;;
61907;SDS011;47864;52.526;19.672;2023-08-17T06:36:08;11.63;;;8.45;;
61907;SDS011;47864;52.526;19.672;2023-08-17T06:38:09;14.68;;;8.40;;
61907;SDS011;47864;52.526;19.672;2023-08-17T06:40:11;17.30;;;8.68;;
61907;SDS011;47864;52.526;19.672;2023-08-17T06:42:12;12.90;;;9.13;;
61907;SDS011;47864;52.526;19.672;2023-08-17T06:44:14;14.75;;;8.30;;
61907;SDS011;47864;52.526;19.672;2023-08-17T06:46:16;13.38;;;8.23;;
61907;SDS011;47864;52.526;19.672;2023-08-17T06:48:17;16.52;;;8.98;;
61907;SDS011;47864;52.526;19.672;2023-08-17T06:50:19;15.27;;;9.90;;
61907;SDS011;47864;52.526;19.672;2023-08-17T06:52:20;15.27;;;8.73;;
61907;SDS011;47864;52.526;19.672;2023-08-17T06:54:22;13.70;;;8.90;;
61907;SDS011;47864;52.526;19.672;2023-08-17T06:56:23;17.23;;;8.82;;
61907;SDS011;47864;52.526;19.672;2023-08-17T06:58:25;14.57;;;8.73;;
61907;SDS011;47864;52.526;19.672;2023-08-17T07:00:26;16.17;;;9.95;;
61907;SDS011;47864;52.526;19.672;2023-08-17T07:02:28;13.73;;;8.93;;
61907;SDS011;47864;52.526;19.672;2023-08-17T07:04:49;13.30;;;9.20;;
61907;SDS011;47864;52.526;19.672;2023-08-17T07:06:51;15.50;;;10.55;;
61907;SDS011;47864;52.526;19.672;2023-08-17T07:08:53;20.30;;;8.77;;
61907;SDS011;47864;52.526;19.672;2023-08-17T07:10:54;12.48;;;8.10;;
61907;SDS011;47864;52.526;19.672;2023-08-17T07:12:56;13.63;;;9.25;;
61907;SDS011;47864;52.526;19.672;2023-08-17T07:14:57;16.13;;;8.45;;
61907;SDS011;47864;52.526;19.672;2023-08-17T07:16:59;14.23;;;8.70;;
61907;SDS011;47864;52.526;19.672;2023-08-17T07:19:00;14.40;;;8.95;;
61907;SDS011;47864;52.526;19.672;2023-08-17T07:21:03;12.50;;;9.05;;
61907;SDS011;47864;52.526;19.672;2023-08-17T07:23:05;18.27;;;10.10;;
61907;SDS011;47864;52.526;19.672;2023-08-17T07:25:07;17.60;;;9.10;;
61907;SDS011;47864;52.526;19.672;2023-08-17T07:27:09;13.55;;;8.57;;
61907;SDS011;47864;52.526;19.672;2023-08-17T07:29:10;16.65;;;8.32;;
61907;SDS011;47864;52.526;19.672;2023-08-17T07:31:12;14.88;;;8.48;;
61907;SDS011;47864;52.526;19.672;2023-08-17T07:33:14;15.15;;;8.10;;
61907;SDS011;47864;52.526;19.672;2023-08-17T07:35:15;11.93;;;8.32;;
61907;SDS011;47864;52.526;19.672;2023-08-17T07:37:17;13.40;;;9.38;;
61907;SDS011;47864;52.526;19.672;2023-08-17T07:39:18;12.57;;;9.05;;
61907;SDS011;47864;52.526;19.672;2023-08-17T07:41:20;12.52;;;8.95;;
61907;SDS011;47864;52.526;19.672;2023-08-17T07:43:22;13.52;;;8.65;;
61907;SDS011;47864;52.526;19.672;2023-08-17T07:45:24;17.00;;;8.95;;
61907;SDS011;47864;52.526;19.672;2023-08-17T07:47:25;12.77;;;9.73;;
61907;SDS011;47864;52.526;19.672;2023-08-17T07:49:28;13.73;;;10.43;;
61907;SDS011;47864;52.526;19.672;2023-08-17T07:51:33;15.50;;;10.73;;
61907;SDS011;47864;52.526;19.672;2023-08-17T07:53:34;16.60;;;9.10;;
61907;SDS011;47864;52.526;19.672;2023-08-17T07:55:36;19.73;;;9.38;;
61907;SDS011;47864;52.526;19.672;2023-08-17T07:57:37;12.20;;;8.93;;
61907;SDS011;47864;52.526;19.672;2023-08-17T07:59:39;15.40;;;9.10;;
61907;SDS011;47864;52.526;19.672;2023-08-17T08:01:40;13.85;;;8.18;;
61907;SDS011;47864;52.526;19.672;2023-08-17T08:03:42;13.23;;;8.57;;
61907;SDS011;47864;52.526;19.672;2023-08-17T08:05:43;14.07;;;8.48;;
61907;SDS011;47864;52.526;19.672;2023-08-17T08:07:45;14.80;;;8.98;;
61907;SDS011;47864;52.526;19.672;2023-08-17T08:09:46;17.63;;;11.40;;
61907;SDS011;47864;52.526;19.672;2023-08-17T08:11:48;12.85;;;8.88;;
61907;SDS011;47864;52.526;19.672;2023-08-17T08:13:49;13.50;;;9.20;;
61907;SDS011;47864;52.526;19.672;2023-08-17T08:15:51;14.13;;;9.02;;
61907;SDS011;47864;52.526;19.672;2023-08-17T08:17:52;15.63;;;8.90;;
61907;SDS011;47864;52.526;19.672;2023-08-17T08:19:54;16.83;;;8.85;;
61907;SDS011;47864;52.526;19.672;2023-08-17T08:21:55;17.40;;;9.80;;
61907;SDS011;47864;52.526;19.672;2023-08-17T08:23:57;13.32;;;9.48;;
61907;SDS011;47864;52.526;19.672;2023-08-17T08:25:58;17.55;;;8.38;;
61907;SDS011;47864;52.526;19.672;2023-08-17T08:28:00;19.00;;;9.35;;
61907;SDS011;47864;52.526;19.672;2023-08-17T08:30:01;21.77;;;13.15;;
61907;SDS011;47864;52.526;19.672;2023-08-17T08:32:03;16.60;;;10.02;;
61907;SDS011;47864;52.526;19.672;2023-08-17T08:34:05;22.33;;;12.32;;
61907;SDS011;47864;52.526;19.672;2023-08-17T08:36:06;14.10;;;9.52;;
61907;SDS011;47864;52.526;19.672;2023-08-17T08:38:08;17.05;;;9.82;;
61907;SDS011;47864;52.526;19.672;2023-08-17T08:40:10;15.05;;;10.55;;
61907;SDS011;47864;52.526;19.672;2023-08-17T08:44:15;14.00;;;9.32;;
61907;SDS011;47864;52.526;19.672;2023-08-17T08:46:16;12.95;;;9.57;;
61907;SDS011;47864;52.526;19.672;2023-08-17T08:48:18;22.73;;;9.73;;
61907;SDS011;47864;52.526;19.672;2023-08-17T08:50:23;16.45;;;9.13;;
61907;SDS011;47864;52.526;19.672;2023-08-17T08:52:42;14.32;;;9.68;;
61907;SDS011;47864;52.526;19.672;2023-08-17T08:54:50;12.27;;;9.20;;
61907;SDS011;47864;52.526;19.672;2023-08-17T08:56:59;11.40;;;8.70;;
61907;SDS011;47864;52.526;19.672;2023-08-17T08:59:05;11.70;;;8.23;;
61907;SDS011;47864;52.526;19.672;2023-08-17T09:01:07;13.60;;;8.90;;
61907;SDS011;47864;52.526;19.672;2023-08-17T09:03:09;12.88;;;9.38;;
61907;SDS011;47864;52.526;19.672;2023-08-17T09:05:11;17.20;;;9.02;;
61907;SDS011;47864;52.526;19.672;2023-08-17T09:07:14;15.63;;;9.40;;
61907;SDS011;47864;52.526;19.672;2023-08-17T09:09:18;16.40;;;10.27;;
61907;SDS011;47864;52.526;19.672;2023-08-17T09:11:19;13.32;;;9.48;;
61907;SDS011;47864;52.526;19.672;2023-08-17T09:13:21;14.25;;;8.10;;
61907;SDS011;47864;52.526;19.672;2023-08-17T09:15:22;11.73;;;8.88;;
61907;SDS011;47864;52.526;19.672;2023-08-17T09:17:24;15.25;;;9.38;;
61907;SDS011;47864;52.526;19.672;2023-08-17T09:19:26;14.52;;;10.38;;
61907;SDS011;47864;52.526;19.672;2023-08-17T09:21:31;11.88;;;9.57;;
61907;SDS011;47864;52.526;19.672;2023-08-17T09:23:33;15.93;;;9.60;;
61907;SDS011;47864;52.526;19.672;2023-08-17T09:25:38;13.57;;;9.52;;
61907;SDS011;47864;52.526;19.672;2023-08-17T09:27:40;16.80;;;9.65;;
61907;SDS011;47864;52.526;19.672;2023-08-17T09:29:42;17.40;;;9.57;;
61907;SDS011;47864;52.526;19.672;2023-08-17T09:31:45;17.23;;;9.15;;
61907;SDS011;47864;52.526;19.672;2023-08-17T09:33:48;22.67;;;12.60;;
61907;SDS011;47864;52.526;19.672;2023-08-17T09:35:52;20.55;;;11.50;;
61907;SDS011;47864;52.526;19.672;2023-08-17T09:37:59;14.93;;;10.88;;
61907;SDS011;47864;52.526;19.672;2023-08-17T09:40:01;13.90;;;10.00;;
61907;SDS011;47864;52.526;19.672;2023-08-17T09:42:02;13.93;;;9.73;;
61907;SDS011;47864;52.526;19.672;2023-08-17T09:44:04;16.08;;;11.27;;
61907;SDS011;47864;52.526;19.672;2023-08-17T09:46:06;13.98;;;10.50;;
61907;SDS011;47864;52.526;19.672;2023-08-17T09:48:08;16.17;;;10.23;;
61907;SDS011;47864;52.526;19.672;2023-08-17T09:50:10;14.13;;;9.25;;
61907;SDS011;47864;52.526;19.672;2023-08-17T09:52:11;15.52;;;9.45;;
61907;SDS011;47864;52.526;19.672;2023-08-17T09:54:21;11.85;;;9.02;;
61907;SDS011;47864;52.526;19.672;2023-08-17T09:56:24;14.10;;;9.68;;
61907;SDS011;47864;52.526;19.672;2023-08-17T09:58:27;17.33;;;11.00;;
61907;SDS011;47864;52.526;19.672;2023-08-17T10:00:32;13.95;;;9.95;;
61907;SDS011;47864;52.526;19.672;2023-08-17T10:02:34;12.97;;;9.70;;
61907;SDS011;47864;52.526;19.672;2023-08-17T10:04:36;13.30;;;9.57;;
61907;SDS011;47864;52.526;19.672;2023-08-17T10:06:39;19.60;;;9.90;;
61907;SDS011;47864;52.526;19.672;2023-08-17T10:08:43;19.33;;;9.85;;
61907;SDS011;47864;52.526;19.672;2023-08-17T10:10:47;12.55;;;9.32;;
61907;SDS011;47864;52.526;19.672;2023-08-17T10:12:53;17.33;;;10.70;;
61907;SDS011;47864;52.526;19.672;2023-08-17T10:15:07;14.15;;;10.30;;
61907;SDS011;47864;52.526;19.672;2023-08-17T10:17:11;13.85;;;10.27;;
61907;SDS011;47864;52.526;19.672;2023-08-17T10:21:48;14.20;;;9.50;;
61907;SDS011;47864;52.526;19.672;2023-08-17T10:23:55;19.73;;;10.30;;
61907;SDS011;47864;52.526;19.672;2023-08-17T10:25:57;15.50;;;9.95;;
61907;SDS011;47864;52.526;19.672;2023-08-17T10:28:01;15.40;;;10.43;;
61907;SDS011;47864;52.526;19.672;2023-08-17T10:30:04;14.90;;;9.93;;
61907;SDS011;47864;52.526;19.672;2023-08-17T10:32:09;19.90;;;10.57;;
61907;SDS011;47864;52.526;19.672;2023-08-17T10:34:17;17.50;;;11.07;;
61907;SDS011;47864;52.526;19.672;2023-08-17T10:36:18;12.88;;;10.57;;
61907;SDS011;47864;52.526;19.672;2023-08-17T10:38:21;12.73;;;10.30;;
61907;SDS011;47864;52.526;19.672;2023-08-17T10:40:26;16.95;;;10.60;;
61907;SDS011;47864;52.526;19.672;2023-08-17T10:42:32;15.30;;;10.32;;
61907;SDS011;47864;52.526;19.672;2023-08-17T10:44:43;15.50;;;11.88;;
61907;SDS011;47864;52.526;19.672;2023-08-17T10:46:50;13.98;;;10.50;;
61907;SDS011;47864;52.526;19.672;2023-08-17T10:48:52;14.52;;;11.13;;
61907;SDS011;47864;52.526;19.672;2023-08-17T10:51:03;15.45;;;10.75;;
61907;SDS011;47864;52.526;19.672;2023-08-17T10:53:12;13.30;;;10.30;;
61907;SDS011;47864;52.526;19.672;2023-08-17T10:55:14;12.85;;;10.90;;
61907;SDS011;47864;52.526;19.672;2023-08-17T10:59:37;15.57;;;11.23;;
61907;SDS011;47864;52.526;19.672;2023-08-17T11:01:40;17.45;;;11.02;;
61907;SDS011;47864;52.526;19.672;2023-08-17T11:05:47;16.13;;;11.82;;
61907;SDS011;47864;52.526;19.672;2023-08-17T11:07:48;16.33;;;10.77;;
61907;SDS011;47864;52.526;19.672;2023-08-17T11:09:50;15.95;;;11.00;;
61907;SDS011;47864;52.526;19.672;2023-08-17T11:11:54;15.73;;;10.90;;
61907;SDS011;47864;52.526;19.672;2023-08-17T11:13:56;13.57;;;10.85;;
61907;SDS011;47864;52.526;19.672;2023-08-17T11:15:58;21.50;;;11.10;;
61907;SDS011;47864;52.526;19.672;2023-08-17T11:18:05;15.63;;;10.68;;
61907;SDS011;47864;52.526;19.672;2023-08-17T11:20:10;13.30;;;11.50;;
61907;SDS011;47864;52.526;19.672;2023-08-17T11:22:15;13.50;;;11.18;;
61907;SDS011;47864;52.526;19.672;2023-08-17T11:24:20;13.60;;;11.00;;
61907;SDS011;47864;52.526;19.672;2023-08-17T11:26:22;14.73;;;10.45;;
61907;SDS011;47864;52.526;19.672;2023-08-17T11:28:25;16.52;;;11.35;;
61907;SDS011;47864;52.526;19.672;2023-08-17T11:30:28;16.70;;;11.00;;
61907;SDS011;47864;52.526;19.672;2023-08-17T11:32:29;10.88;;;9.77;;
61907;SDS011;47864;52.526;19.672;2023-08-17T11:34:31;15.07;;;11.52;;
61907;SDS011;47864;52.526;19.672;2023-08-17T11:36:33;17.80;;;10.77;;
61907;SDS011;47864;52.526;19.672;2023-08-17T11:38:35;18.70;;;12.68;;
61907;SDS011;47864;52.526;19.672;2023-08-17T11:40:38;12.77;;;10.77;;
61907;SDS011;47864;52.526;19.672;2023-08-17T11:42:39;15.70;;;10.90;;
61907;SDS011;47864;52.526;19.672;2023-08-17T11:44:42;12.57;;;10.10;;
61907;SDS011;47864;52.526;19.672;2023-08-17T11:46:44;19.10;;;11.05;;
61907;SDS011;47864;52.526;19.672;2023-08-17T11:48:45;14.63;;;10.25;;
61907;SDS011;47864;52.526;19.672;2023-08-17T11:50:47;51.90;;;13.75;;
61907;SDS011;47864;52.526;19.672;2023-08-17T11:52:49;13.67;;;10.87;;
61907;SDS011;47864;52.526;19.672;2023-08-17T11:54:51;20.88;;;11.13;;
61907;SDS011;47864;52.526;19.672;2023-08-17T11:56:55;14.98;;;10.20;;
61907;SDS011;47864;52.526;19.672;2023-08-17T11:58:57;15.40;;;10.40;;
61907;SDS011;47864;52.526;19.672;2023-08-17T12:00:59;17.92;;;11.75;;
61907;SDS011;47864;52.526;19.672;2023-08-17T12:03:01;12.85;;;10.02;;
61907;SDS011;47864;52.526;19.672;2023-08-17T12:05:04;16.13;;;11.20;;